JNA087 RKSI-VVCR
Flight info
| Callsign | JNA087 |
|---|---|
| Flight time | N/A |
| Altitude | 36000 |
| Route | BOPTA2Y BOPTA DCT PONIK Y711 MUGUS Y742 SALMI Q11 TACLE Q12 KABAM N892 MIGUG/K0872F360 N892 MESOX L628 VEPAM L642 SOSPA W15 PANCA PANCA1C |
| Aircraft | B738/M-SDE2E3FGHIRWXY/LB1 |
Departure
| Time | N/A |
|---|---|
| Airport | Incheon International Airport (RKSI) |
Arrival
| Time | 2026-05-01 15:18 |
|---|---|
| Airport | Cam Ranh International Airport / Cam Ranh Air Base (VVCR) |
| Time | Latitude | Longitude | Altitude | Speed | Heading |
|---|---|---|---|---|---|
| 2026-05-01 13:36 | 18.40943 | 117.14874 | 35947 ft | 442 kts | 227° |
| 2026-05-01 13:36 | 18.34359 | 117.08098 | 35954 ft | 442 kts | 227° |
| 2026-05-01 13:37 | 18.29957 | 117.03573 | 35951 ft | 443 kts | 227° |
| 2026-05-01 13:37 | 18.25549 | 116.99045 | 35950 ft | 443 kts | 227° |
| 2026-05-01 13:38 | 18.18950 | 116.92271 | 35951 ft | 442 kts | 227° |
| 2026-05-01 13:39 | 18.14545 | 116.87755 | 35948 ft | 442 kts | 227° |
| 2026-05-01 13:39 | 18.10145 | 116.83246 | 35940 ft | 442 kts | 227° |
| 2026-05-01 13:40 | 18.05752 | 116.78748 | 35946 ft | 442 kts | 227° |
| 2026-05-01 13:40 | 18.01351 | 116.74246 | 35952 ft | 442 kts | 227° |
| 2026-05-01 13:41 | 17.96948 | 116.69744 | 35951 ft | 442 kts | 227° |
| 2026-05-01 13:41 | 17.92542 | 116.65242 | 35948 ft | 442 kts | 227° |
| 2026-05-01 13:42 | 17.88140 | 116.60748 | 35950 ft | 442 kts | 227° |
| 2026-05-01 13:42 | 17.83742 | 116.56260 | 35948 ft | 442 kts | 227° |
| 2026-05-01 13:43 | 17.79335 | 116.51766 | 35944 ft | 442 kts | 227° |
| 2026-05-01 13:43 | 17.74942 | 116.47293 | 35949 ft | 442 kts | 227° |
| 2026-05-01 13:44 | 17.70524 | 116.42802 | 35954 ft | 442 kts | 227° |
| 2026-05-01 13:44 | 17.66104 | 116.38309 | 35951 ft | 443 kts | 227° |
| 2026-05-01 13:45 | 17.61694 | 116.33829 | 35948 ft | 443 kts | 227° |
| 2026-05-01 13:45 | 17.57270 | 116.29337 | 35940 ft | 443 kts | 227° |
| 2026-05-01 13:46 | 17.52859 | 116.24862 | 35946 ft | 442 kts | 227° |
| 2026-05-01 13:46 | 17.48439 | 116.20380 | 35951 ft | 442 kts | 227° |
| 2026-05-01 13:47 | 17.44015 | 116.15898 | 35947 ft | 442 kts | 227° |
| 2026-05-01 13:47 | 17.39595 | 116.11423 | 35949 ft | 442 kts | 227° |
| 2026-05-01 13:48 | 17.35181 | 116.06956 | 35949 ft | 442 kts | 227° |
| 2026-05-01 13:48 | 17.30767 | 116.02494 | 35951 ft | 442 kts | 227° |
| 2026-05-01 13:49 | 17.26340 | 115.98021 | 35949 ft | 442 kts | 227° |
| 2026-05-01 13:49 | 17.21917 | 115.93556 | 35939 ft | 442 kts | 227° |
| 2026-05-01 13:50 | 17.18247 | 115.89853 | 35946 ft | 442 kts | 227° |
| 2026-05-01 13:50 | 17.13821 | 115.85390 | 35949 ft | 442 kts | 227° |
| 2026-05-01 13:51 | 17.09386 | 115.80921 | 35950 ft | 443 kts | 227° |
| 2026-05-01 13:51 | 17.04949 | 115.76454 | 35947 ft | 443 kts | 227° |
| 2026-05-01 13:52 | 17.00517 | 115.71995 | 35949 ft | 444 kts | 227° |
| 2026-05-01 13:52 | 16.96068 | 115.67521 | 35946 ft | 444 kts | 227° |
| 2026-05-01 13:53 | 16.91618 | 115.63049 | 35940 ft | 444 kts | 227° |
| 2026-05-01 13:53 | 16.84929 | 115.56334 | 35951 ft | 445 kts | 227° |
| 2026-05-01 13:54 | 16.80472 | 115.51864 | 35945 ft | 446 kts | 227° |
| 2026-05-01 13:54 | 16.76012 | 115.47393 | 35948 ft | 446 kts | 227° |
| 2026-05-01 13:55 | 16.71537 | 115.42910 | 35951 ft | 446 kts | 227° |
| 2026-05-01 13:55 | 16.67057 | 115.38427 | 35950 ft | 446 kts | 227° |
| 2026-05-01 13:56 | 16.62589 | 115.33957 | 35943 ft | 446 kts | 227° |
| 2026-05-01 13:56 | 16.58110 | 115.29479 | 35941 ft | 446 kts | 227° |
| 2026-05-01 13:57 | 16.53630 | 115.25005 | 35951 ft | 446 kts | 227° |
| 2026-05-01 13:57 | 16.49156 | 115.20537 | 35948 ft | 446 kts | 227° |
| 2026-05-01 13:58 | 16.44683 | 115.16075 | 35943 ft | 446 kts | 227° |
| 2026-05-01 13:58 | 16.40219 | 115.11625 | 35944 ft | 445 kts | 227° |
| 2026-05-01 13:59 | 16.35744 | 115.07167 | 35949 ft | 445 kts | 227° |
| 2026-05-01 13:59 | 16.31268 | 115.02710 | 35948 ft | 445 kts | 227° |
| 2026-05-01 14:00 | 16.26810 | 114.98274 | 35943 ft | 445 kts | 228° |
| 2026-05-01 14:00 | 16.22332 | 114.93822 | 35954 ft | 445 kts | 228° |
| 2026-05-01 14:01 | 16.17851 | 114.89369 | 35939 ft | 445 kts | 227° |
| 2026-05-01 14:01 | 16.13369 | 114.84918 | 35943 ft | 446 kts | 227° |
| 2026-05-01 14:02 | 16.08884 | 114.80468 | 35945 ft | 446 kts | 227° |
| 2026-05-01 14:02 | 16.04397 | 114.76018 | 35947 ft | 446 kts | 227° |
| 2026-05-01 14:03 | 15.99907 | 114.71569 | 35946 ft | 446 kts | 227° |
| 2026-05-01 14:03 | 15.95418 | 114.67123 | 35944 ft | 446 kts | 227° |
| 2026-05-01 14:04 | 15.90930 | 114.62681 | 35945 ft | 446 kts | 227° |
| 2026-05-01 14:04 | 15.86441 | 114.58241 | 35942 ft | 445 kts | 227° |
| 2026-05-01 14:05 | 15.81963 | 114.53815 | 35945 ft | 445 kts | 227° |
| 2026-05-01 14:05 | 15.77478 | 114.49384 | 35950 ft | 445 kts | 227° |
| 2026-05-01 14:06 | 15.73000 | 114.44963 | 35943 ft | 445 kts | 227° |
| 2026-05-01 14:06 | 15.68507 | 114.40531 | 35942 ft | 445 kts | 227° |
| 2026-05-01 14:07 | 15.64025 | 114.36111 | 35937 ft | 445 kts | 227° |
| 2026-05-01 14:08 | 15.57297 | 114.29483 | 35943 ft | 445 kts | 227° |
| 2026-05-01 14:08 | 15.52806 | 114.25062 | 35949 ft | 445 kts | 227° |
| 2026-05-01 14:09 | 15.48308 | 114.20636 | 35945 ft | 446 kts | 227° |
| 2026-05-01 14:09 | 15.43801 | 114.16205 | 35941 ft | 447 kts | 227° |
| 2026-05-01 14:10 | 15.39286 | 114.11768 | 35934 ft | 448 kts | 227° |
| 2026-05-01 14:10 | 15.34773 | 114.07336 | 35937 ft | 448 kts | 227° |
| 2026-05-01 14:11 | 15.30250 | 114.02895 | 35929 ft | 449 kts | 227° |
| 2026-05-01 14:11 | 15.23052 | 113.96648 | 35948 ft | 453 kts | 219° |
| 2026-05-01 14:12 | 15.17876 | 113.92904 | 35948 ft | 454 kts | 218° |
| 2026-05-01 14:12 | 15.12707 | 113.89149 | 35936 ft | 454 kts | 219° |
| 2026-05-01 14:13 | 15.08385 | 113.85966 | 35942 ft | 454 kts | 219° |
| 2026-05-01 14:13 | 15.02412 | 113.81539 | 35942 ft | 454 kts | 219° |
| 2026-05-01 14:14 | 14.97276 | 113.77730 | 35942 ft | 454 kts | 219° |
| 2026-05-01 14:14 | 14.92139 | 113.73925 | 35939 ft | 455 kts | 219° |
| 2026-05-01 14:15 | 14.86995 | 113.70117 | 35937 ft | 455 kts | 219° |
| 2026-05-01 14:15 | 14.81848 | 113.66311 | 35936 ft | 455 kts | 219° |
| 2026-05-01 14:16 | 14.76699 | 113.62505 | 35938 ft | 455 kts | 219° |
| 2026-05-01 14:16 | 14.71552 | 113.58702 | 35928 ft | 455 kts | 218° |
| 2026-05-01 14:17 | 14.66416 | 113.54909 | 35933 ft | 455 kts | 218° |
| 2026-05-01 14:17 | 14.61278 | 113.51118 | 35935 ft | 455 kts | 218° |
| 2026-05-01 14:18 | 14.56092 | 113.47292 | 35935 ft | 455 kts | 218° |
| 2026-05-01 14:18 | 14.51803 | 113.44130 | 35934 ft | 456 kts | 218° |
| 2026-05-01 14:19 | 14.45788 | 113.39696 | 35935 ft | 456 kts | 218° |
| 2026-05-01 14:19 | 14.40629 | 113.35889 | 35924 ft | 456 kts | 218° |
| 2026-05-01 14:20 | 14.32906 | 113.30191 | 35936 ft | 456 kts | 218° |
| 2026-05-01 14:21 | 14.27744 | 113.26387 | 35928 ft | 456 kts | 218° |
| 2026-05-01 14:21 | 14.22580 | 113.22582 | 35933 ft | 456 kts | 218° |
| 2026-05-01 14:22 | 14.14827 | 113.16874 | 35932 ft | 457 kts | 218° |
| 2026-05-01 14:22 | 14.09623 | 113.13045 | 35931 ft | 457 kts | 218° |
| 2026-05-01 14:23 | 14.04453 | 113.09243 | 35932 ft | 457 kts | 218° |
| 2026-05-01 14:23 | 13.99783 | 113.04928 | 35933 ft | 448 kts | 241° |
| 2026-05-01 14:24 | 13.98465 | 113.02045 | 35921 ft | 445 kts | 255° |
| 2026-05-01 14:24 | 13.97891 | 112.98939 | 35929 ft | 441 kts | 269° |
| 2026-05-01 14:24 | 13.97872 | 112.92633 | 35933 ft | 441 kts | 272° |
| 2026-05-01 14:25 | 13.97969 | 112.86317 | 35928 ft | 442 kts | 271° |
| 2026-05-01 14:25 | 13.98023 | 112.79991 | 35931 ft | 442 kts | 271° |
| 2026-05-01 14:26 | 13.98040 | 112.71563 | 35932 ft | 443 kts | 271° |
| 2026-05-01 14:27 | 13.98041 | 112.64159 | 35934 ft | 443 kts | 271° |
| 2026-05-01 14:27 | 13.98040 | 112.58894 | 35931 ft | 444 kts | 271° |
| 2026-05-01 14:28 | 13.98037 | 112.49392 | 35931 ft | 444 kts | 271° |
| 2026-05-01 14:28 | 13.98034 | 112.43047 | 35935 ft | 444 kts | 270° |
| 2026-05-01 14:29 | 13.98029 | 112.36692 | 35930 ft | 444 kts | 270° |
| 2026-05-01 14:30 | 13.98014 | 112.24002 | 35936 ft | 443 kts | 270° |
| 2026-05-01 14:31 | 13.97998 | 112.14514 | 35936 ft | 442 kts | 270° |
| 2026-05-01 14:31 | 13.97986 | 112.08186 | 35939 ft | 441 kts | 270° |
| 2026-05-01 14:32 | 13.97972 | 112.01874 | 35937 ft | 441 kts | 270° |
| 2026-05-01 14:32 | 13.97956 | 111.95570 | 35936 ft | 440 kts | 270° |
| 2026-05-01 14:33 | 13.97939 | 111.89271 | 35935 ft | 439 kts | 270° |
| 2026-05-01 14:33 | 13.97920 | 111.82990 | 35937 ft | 439 kts | 270° |
| 2026-05-01 14:34 | 13.97900 | 111.76703 | 35946 ft | 438 kts | 270° |
| 2026-05-01 14:34 | 13.97878 | 111.70434 | 35937 ft | 438 kts | 270° |
| 2026-05-01 14:35 | 13.97854 | 111.64169 | 35944 ft | 437 kts | 270° |
| 2026-05-01 14:35 | 13.97829 | 111.57911 | 35942 ft | 437 kts | 270° |
| 2026-05-01 14:36 | 13.97803 | 111.51628 | 35938 ft | 436 kts | 270° |
| 2026-05-01 14:36 | 13.97775 | 111.45426 | 35940 ft | 436 kts | 270° |
| 2026-05-01 14:37 | 13.97747 | 111.39194 | 35942 ft | 436 kts | 270° |
| 2026-05-01 14:37 | 13.97717 | 111.32972 | 35943 ft | 436 kts | 270° |
| 2026-05-01 14:38 | 13.97685 | 111.26681 | 35942 ft | 436 kts | 270° |
| 2026-05-01 14:38 | 13.97652 | 111.20437 | 35939 ft | 437 kts | 270° |
| 2026-05-01 14:39 | 13.97617 | 111.14224 | 35939 ft | 437 kts | 270° |
| 2026-05-01 14:39 | 13.97581 | 111.07974 | 35940 ft | 437 kts | 270° |
| 2026-05-01 14:40 | 13.97543 | 111.01719 | 35939 ft | 438 kts | 270° |
| 2026-05-01 14:40 | 13.97503 | 110.95466 | 35945 ft | 438 kts | 270° |
| 2026-05-01 14:41 | 13.97462 | 110.89187 | 35945 ft | 439 kts | 270° |
| 2026-05-01 14:41 | 13.97419 | 110.82905 | 35946 ft | 439 kts | 270° |
| 2026-05-01 14:42 | 13.97374 | 110.76608 | 35950 ft | 440 kts | 270° |
| 2026-05-01 14:42 | 13.97327 | 110.70313 | 35943 ft | 439 kts | 270° |
| 2026-05-01 14:43 | 13.97280 | 110.64035 | 35945 ft | 438 kts | 270° |
| 2026-05-01 14:43 | 13.97230 | 110.57764 | 35947 ft | 437 kts | 270° |
| 2026-05-01 14:44 | 13.97179 | 110.51513 | 35944 ft | 436 kts | 270° |
| 2026-05-01 14:44 | 13.97100 | 110.42195 | 35950 ft | 435 kts | 270° |
| 2026-05-01 14:45 | 13.97018 | 110.32878 | 35947 ft | 433 kts | 270° |
| 2026-05-01 14:46 | 13.96962 | 110.26698 | 35897 ft | 434 kts | 270° |
| 2026-05-01 14:46 | 13.96903 | 110.20458 | 35403 ft | 435 kts | 270° |
| 2026-05-01 14:46 | 13.96873 | 110.17350 | 35166 ft | 434 kts | 270° |
| 2026-05-01 14:47 | 13.96843 | 110.14242 | 34937 ft | 433 kts | 270° |
| 2026-05-01 14:47 | 13.96813 | 110.11145 | 34711 ft | 432 kts | 269° |
| 2026-05-01 14:47 | 13.96782 | 110.08055 | 34484 ft | 432 kts | 269° |
| 2026-05-01 14:48 | 13.95972 | 110.01989 | 34007 ft | 432 kts | 246° |
| 2026-05-01 14:48 | 13.94441 | 109.99337 | 33787 ft | 432 kts | 233° |
| 2026-05-01 14:48 | 13.89831 | 109.95383 | 33284 ft | 435 kts | 214° |
| 2026-05-01 14:49 | 13.84661 | 109.92130 | 32790 ft | 436 kts | 213° |
| 2026-05-01 14:49 | 13.79484 | 109.88895 | 32297 ft | 435 kts | 213° |
| 2026-05-01 14:50 | 13.76070 | 109.86731 | 31980 ft | 435 kts | 213° |
| 2026-05-01 14:50 | 13.69209 | 109.82338 | 31340 ft | 434 kts | 213° |
| 2026-05-01 14:51 | 13.66651 | 109.80695 | 31102 ft | 433 kts | 213° |
| 2026-05-01 14:51 | 13.61546 | 109.77418 | 30650 ft | 431 kts | 213° |
| 2026-05-01 14:52 | 13.56486 | 109.74171 | 30193 ft | 428 kts | 212° |
| 2026-05-01 14:52 | 13.53962 | 109.72553 | 29952 ft | 427 kts | 212° |
| 2026-05-01 14:52 | 13.48962 | 109.69348 | 29276 ft | 418 kts | 212° |
| 2026-05-01 14:53 | 13.46505 | 109.67775 | 28837 ft | 415 kts | 212° |
| 2026-05-01 14:53 | 13.44068 | 109.66213 | 28409 ft | 411 kts | 212° |
| 2026-05-01 14:53 | 13.41648 | 109.64664 | 27985 ft | 408 kts | 212° |
| 2026-05-01 14:53 | 13.39251 | 109.63129 | 27570 ft | 405 kts | 212° |
| 2026-05-01 14:54 | 13.36869 | 109.61604 | 27151 ft | 402 kts | 212° |
| 2026-05-01 14:54 | 13.34504 | 109.60091 | 26737 ft | 399 kts | 212° |
| 2026-05-01 14:54 | 13.32154 | 109.58587 | 26323 ft | 397 kts | 212° |
| 2026-05-01 14:54 | 13.29818 | 109.57093 | 25912 ft | 395 kts | 212° |
| 2026-05-01 14:55 | 13.27494 | 109.55607 | 25491 ft | 393 kts | 212° |
| 2026-05-01 14:55 | 13.25174 | 109.54123 | 25081 ft | 391 kts | 212° |
| 2026-05-01 14:55 | 13.22868 | 109.52650 | 24665 ft | 390 kts | 212° |
| 2026-05-01 14:55 | 13.20572 | 109.51182 | 24252 ft | 388 kts | 211° |
| 2026-05-01 14:56 | 13.18281 | 109.49719 | 23841 ft | 387 kts | 211° |
| 2026-05-01 14:56 | 13.16003 | 109.48264 | 23419 ft | 386 kts | 211° |
| 2026-05-01 14:56 | 13.13732 | 109.46814 | 22952 ft | 384 kts | 211° |
| 2026-05-01 14:56 | 13.11382 | 109.45547 | 22505 ft | 380 kts | 198° |
| 2026-05-01 14:57 | 13.08800 | 109.45078 | 22137 ft | 375 kts | 182° |
| 2026-05-01 14:57 | 13.03628 | 109.45008 | 21421 ft | 367 kts | 179° |
| 2026-05-01 14:57 | 13.01099 | 109.45024 | 21108 ft | 363 kts | 179° |
| 2026-05-01 14:58 | 12.98598 | 109.45045 | 20796 ft | 359 kts | 179° |
| 2026-05-01 14:58 | 12.96119 | 109.45067 | 20503 ft | 354 kts | 179° |
| 2026-05-01 14:58 | 12.93670 | 109.45088 | 20221 ft | 350 kts | 179° |
| 2026-05-01 14:58 | 12.91248 | 109.45108 | 19952 ft | 345 kts | 179° |
| 2026-05-01 14:59 | 12.88862 | 109.45127 | 19696 ft | 341 kts | 179° |
| 2026-05-01 14:59 | 12.86517 | 109.45144 | 19460 ft | 336 kts | 179° |
| 2026-05-01 14:59 | 12.84190 | 109.45159 | 19234 ft | 334 kts | 179° |
| 2026-05-01 14:59 | 12.81872 | 109.45173 | 19036 ft | 331 kts | 179° |
| 2026-05-01 15:00 | 12.77230 | 109.45196 | 18714 ft | 336 kts | 179° |
| 2026-05-01 15:00 | 12.74891 | 109.45206 | 18272 ft | 340 kts | 178° |
| 2026-05-01 15:00 | 12.72514 | 109.45199 | 17832 ft | 345 kts | 181° |
| 2026-05-01 15:01 | 12.70105 | 109.44920 | 17394 ft | 354 kts | 187° |
| 2026-05-01 15:01 | 12.67658 | 109.44508 | 16959 ft | 359 kts | 188° |
| 2026-05-01 15:01 | 12.65195 | 109.44067 | 16646 ft | 357 kts | 188° |
| 2026-05-01 15:01 | 12.62765 | 109.43624 | 16333 ft | 353 kts | 188° |
| 2026-05-01 15:02 | 12.60360 | 109.43180 | 15945 ft | 351 kts | 188° |
| 2026-05-01 15:02 | 12.59546 | 109.43029 | 15809 ft | 350 kts | 189° |
| 2026-05-01 15:02 | 12.55577 | 109.42290 | 15169 ft | 348 kts | 189° |
| 2026-05-01 15:02 | 12.53205 | 109.41844 | 14805 ft | 345 kts | 189° |
| 2026-05-01 15:03 | 12.50849 | 109.41400 | 14449 ft | 343 kts | 189° |
| 2026-05-01 15:03 | 12.48508 | 109.40956 | 14091 ft | 342 kts | 189° |
| 2026-05-01 15:03 | 12.46175 | 109.40512 | 13728 ft | 340 kts | 189° |
| 2026-05-01 15:03 | 12.43854 | 109.40069 | 13335 ft | 338 kts | 189° |
| 2026-05-01 15:04 | 12.41549 | 109.39628 | 12952 ft | 336 kts | 189° |
| 2026-05-01 15:04 | 12.39258 | 109.39189 | 12569 ft | 335 kts | 189° |
| 2026-05-01 15:04 | 12.36971 | 109.38748 | 12183 ft | 333 kts | 189° |
| 2026-05-01 15:04 | 12.34702 | 109.38309 | 11826 ft | 331 kts | 189° |
| 2026-05-01 15:05 | 12.32443 | 109.37873 | 11461 ft | 329 kts | 189° |
| 2026-05-01 15:05 | 12.30198 | 109.37440 | 11105 ft | 328 kts | 189° |
| 2026-05-01 15:05 | 12.27966 | 109.37009 | 10841 ft | 323 kts | 189° |
| 2026-05-01 15:05 | 12.25803 | 109.36590 | 10781 ft | 311 kts | 189° |
| 2026-05-01 15:06 | 12.23713 | 109.36184 | 10672 ft | 302 kts | 189° |
| 2026-05-01 15:06 | 12.21665 | 109.35825 | 10379 ft | 299 kts | 182° |
| 2026-05-01 15:06 | 12.20266 | 109.35865 | 10145 ft | 297 kts | 172° |
| 2026-05-01 15:06 | 12.17536 | 109.36252 | 9701 ft | 296 kts | 169° |
| 2026-05-01 15:07 | 12.16184 | 109.36467 | 9455 ft | 296 kts | 169° |
| 2026-05-01 15:07 | 12.14160 | 109.36795 | 9130 ft | 295 kts | 169° |
| 2026-05-01 15:07 | 12.12138 | 109.37125 | 8814 ft | 293 kts | 169° |
| 2026-05-01 15:07 | 12.10126 | 109.37454 | 8496 ft | 292 kts | 169° |
| 2026-05-01 15:08 | 12.08134 | 109.37779 | 8180 ft | 291 kts | 169° |
| 2026-05-01 15:08 | 12.06139 | 109.38102 | 7862 ft | 289 kts | 168° |
| 2026-05-01 15:08 | 12.04153 | 109.38416 | 7558 ft | 288 kts | 169° |
| 2026-05-01 15:08 | 12.02161 | 109.38617 | 7238 ft | 290 kts | 182° |
| 2026-05-01 15:09 | 12.00208 | 109.38142 | 6951 ft | 292 kts | 199° |
| 2026-05-01 15:09 | 11.98331 | 109.37354 | 6659 ft | 291 kts | 201° |
| 2026-05-01 15:09 | 11.96477 | 109.36537 | 6360 ft | 290 kts | 201° |
| 2026-05-01 15:09 | 11.94624 | 109.35721 | 6038 ft | 289 kts | 201° |
| 2026-05-01 15:10 | 11.92775 | 109.34916 | 5719 ft | 289 kts | 201° |
| 2026-05-01 15:10 | 11.89084 | 109.33327 | 5102 ft | 288 kts | 201° |
| 2026-05-01 15:10 | 11.87245 | 109.32541 | 4779 ft | 284 kts | 200° |
| 2026-05-01 15:11 | 11.85442 | 109.31772 | 4454 ft | 277 kts | 200° |
| 2026-05-01 15:11 | 11.81965 | 109.30287 | 3810 ft | 265 kts | 203° |
| 2026-05-01 15:11 | 11.80515 | 109.29175 | 3469 ft | 262 kts | 234° |
| 2026-05-01 15:12 | 11.79835 | 109.27500 | 3234 ft | 251 kts | 264° |
| 2026-05-01 15:12 | 11.80504 | 109.24252 | 2798 ft | 222 kts | 298° |
| 2026-05-01 15:12 | 11.81170 | 109.22884 | 2661 ft | 210 kts | 300° |
| 2026-05-01 15:13 | 11.83024 | 109.19070 | 2606 ft | 196 kts | 299° |
| 2026-05-01 15:14 | 11.84888 | 109.17357 | 2486 ft | 186 kts | 0° |
| 2026-05-01 15:14 | 11.86123 | 109.17632 | 2385 ft | 184 kts | 15° |
| 2026-05-01 15:14 | 11.88731 | 109.18352 | 2200 ft | 174 kts | 20° |
| 2026-05-01 15:15 | 11.90895 | 109.19121 | 1720 ft | 158 kts | 19° |
| 2026-05-01 15:15 | 11.92959 | 109.19841 | 1243 ft | 158 kts | 18° |
| 2026-05-01 15:16 | 11.95019 | 109.20560 | 813 ft | 149 kts | 18° |
| 2026-05-01 15:16 | 11.96909 | 109.21216 | 309 ft | 154 kts | 18° |
| 2026-05-01 15:17 | 11.98808 | 109.21877 | 50 ft | 129 kts | 20° |
| 2026-05-01 15:18 | 12.00301 | 109.22398 | 49 ft | 37 kts | 19° |
| 2026-05-01 15:18 | 12.00507 | 109.22468 | 50 ft | 23 kts | 18° |
| 2026-05-01 15:19 | 12.00846 | 109.22486 | 53 ft | 14 kts | 346° |
| 2026-05-01 15:19 | 12.01006 | 109.22449 | 48 ft | 11 kts | 344° |
| 2026-05-01 15:19 | 12.01070 | 109.22430 | 51 ft | 8 kts | 338° |
| 2026-05-01 15:20 | 12.01124 | 109.22331 | 51 ft | 8 kts | 288° |
| 2026-05-01 15:20 | 12.01143 | 109.22270 | 52 ft | 10 kts | 288° |
| 2026-05-01 15:20 | 12.01170 | 109.22190 | 52 ft | 13 kts | 290° |
| 2026-05-01 15:21 | 12.01201 | 109.22103 | 52 ft | 13 kts | 288° |
| 2026-05-01 15:21 | 12.01229 | 109.22020 | 52 ft | 10 kts | 289° |
| 2026-05-01 15:21 | 12.01224 | 109.21957 | 50 ft | 9 kts | 233° |
| 2026-05-01 15:21 | 12.01169 | 109.21922 | 52 ft | 9 kts | 205° |
| 2026-05-01 15:22 | 12.01124 | 109.21873 | 52 ft | 5 kts | 287° |
| 2026-05-01 15:22 | 12.01134 | 109.21840 | 50 ft | 5 kts | 289° |
| 2026-05-01 15:22 | 12.01141 | 109.21820 | 52 ft | 1 kts | 289° |
| 2026-05-01 15:23 | 12.01143 | 109.21812 | 52 ft | 1 kts | 289° |
| 2026-05-01 15:23 | 12.01145 | 109.21807 | 52 ft | 1 kts | 289° |
| 2026-05-01 15:23 | 12.01145 | 109.21806 | 52 ft | 0 kts | 289° |